sensor_id;sensor_type;location;lat;lon;timestamp;temperature;humidity
55719;DHT22;41623;46.104;19.656;2024-03-17T11:41:42;435.60;1612.80
55719;DHT22;41623;46.104;19.656;2024-03-17T11:47:00;435.20;1638.40
55719;DHT22;41623;46.104;19.656;2024-03-17T11:49:39;435.20;1664.00
55719;DHT22;41623;46.104;19.656;2024-03-17T11:52:10;435.20;1664.00
55719;DHT22;41623;46.104;19.656;2024-03-17T11:54:41;435.20;1664.00
55719;DHT22;41623;46.104;19.656;2024-03-17T11:59:33;410.50;1664.00
55719;DHT22;41623;46.104;19.656;2024-03-17T12:02:01;410.50;1664.00
55719;DHT22;41623;46.104;19.656;2024-03-17T12:04:29;410.50;1664.00
55719;DHT22;41623;46.104;19.656;2024-03-17T12:06:56;410.50;1664.00
55719;DHT22;41623;46.104;19.656;2024-03-17T12:09:31;410.50;1664.00
55719;DHT22;41623;46.104;19.656;2024-03-17T12:12:05;410.50;1664.00
55719;DHT22;41623;46.104;19.656;2024-03-17T12:14:32;410.40;1664.00
55719;DHT22;41623;46.104;19.656;2024-03-17T12:17:03;410.50;1689.60
55719;DHT22;41623;46.104;19.656;2024-03-17T12:21:58;435.30;1638.40
55719;DHT22;41623;46.104;19.656;2024-03-17T12:24:27;410.50;1664.00
55719;DHT22;41623;46.104;19.656;2024-03-17T12:26:55;410.40;1664.00
55719;DHT22;41623;46.104;19.656;2024-03-17T12:47:20;435.20;1638.40
55719;DHT22;41623;46.104;19.656;2024-03-17T12:49:48;410.30;1664.00
55719;DHT22;41623;46.104;19.656;2024-03-17T12:52:38;410.30;1638.40
55719;DHT22;41623;46.104;19.656;2024-03-17T13:00:37;410.20;1587.20
55719;DHT22;41623;46.104;19.656;2024-03-17T13:03:07;410.20;1561.60
55719;DHT22;41623;46.104;19.656;2024-03-17T13:08:00;410.50;1587.20
55719;DHT22;41623;46.104;19.656;2024-03-17T13:10:27;410.30;1587.20
55719;DHT22;41623;46.104;19.656;2024-03-17T13:13:14;410.20;1587.20
55719;DHT22;41623;46.104;19.656;2024-03-17T13:15:42;410.20;1587.20
55719;DHT22;41623;46.104;19.656;2024-03-17T13:18:08;410.20;1561.60
55719;DHT22;41623;46.104;19.656;2024-03-17T13:20:34;410.10;1612.80
55719;DHT22;41623;46.104;19.656;2024-03-17T13:23:01;410.10;1638.40
55719;DHT22;41623;46.104;19.656;2024-03-17T13:25:28;410.10;1561.60
55719;DHT22;41623;46.104;19.656;2024-03-17T13:28:02;410.10;1587.20
55719;DHT22;41623;46.104;19.656;2024-03-17T13:30:30;410.20;1612.80
55719;DHT22;41623;46.104;19.656;2024-03-17T13:32:56;410.10;1612.80
55719;DHT22;41623;46.104;19.656;2024-03-17T13:35:29;410.10;1638.40
55719;DHT22;41623;46.104;19.656;2024-03-17T13:37:56;410.10;1587.20
55719;DHT22;41623;46.104;19.656;2024-03-17T13:40:25;410.10;1561.60
55719;DHT22;41623;46.104;19.656;2024-03-17T13:42:56;410.10;1587.20
55719;DHT22;41623;46.104;19.656;2024-03-17T13:45:23;410.10;1561.60
55719;DHT22;41623;46.104;19.656;2024-03-17T13:47:58;410.10;1612.80
55719;DHT22;41623;46.104;19.656;2024-03-17T13:50:24;410.10;1587.20
55719;DHT22;41623;46.104;19.656;2024-03-17T13:52:50;410.10;1561.60
55719;DHT22;41623;46.104;19.656;2024-03-17T13:55:18;410.10;1612.80
55719;DHT22;41623;46.104;19.656;2024-03-17T13:57:46;410.10;1587.20
55719;DHT22;41623;46.104;19.656;2024-03-17T14:00:13;410.10;1612.80
55719;DHT22;41623;46.104;19.656;2024-03-17T14:02:46;410.10;1587.20
55719;DHT22;41623;46.104;19.656;2024-03-17T14:05:20;410.00;1612.80
55719;DHT22;41623;46.104;19.656;2024-03-17T14:07:46;410.10;1612.80
55719;DHT22;41623;46.104;19.656;2024-03-17T14:10:14;410.10;1664.00
55719;DHT22;41623;46.104;19.656;2024-03-17T14:12:40;410.10;1638.40
55719;DHT22;41623;46.104;19.656;2024-03-17T14:15:08;410.10;1638.40
55719;DHT22;41623;46.104;19.656;2024-03-17T14:17:38;410.10;1638.40
55719;DHT22;41623;46.104;19.656;2024-03-17T14:20:06;410.20;1638.40
55719;DHT22;41623;46.104;19.656;2024-03-17T14:22:39;410.10;1664.00
55719;DHT22;41623;46.104;19.656;2024-03-17T14:25:08;410.10;1638.40
55719;DHT22;41623;46.104;19.656;2024-03-17T14:27:38;410.10;1612.80
55719;DHT22;41623;46.104;19.656;2024-03-17T14:30:04;410.00;1638.40
55719;DHT22;41623;46.104;19.656;2024-03-17T14:32:32;410.00;1638.40
55719;DHT22;41623;46.104;19.656;2024-03-17T14:34:58;410.00;1664.00
55719;DHT22;41623;46.104;19.656;2024-03-17T14:37:23;410.00;1638.40
55719;DHT22;41623;46.104;19.656;2024-03-17T14:39:52;410.10;1638.40
55719;DHT22;41623;46.104;19.656;2024-03-17T14:42:19;410.00;1664.00
55719;DHT22;41623;46.104;19.656;2024-03-17T14:44:45;410.10;1638.40
55719;DHT22;41623;46.104;19.656;2024-03-17T14:47:13;410.00;1664.00
55719;DHT22;41623;46.104;19.656;2024-03-17T14:49:38;410.00;1638.40
55719;DHT22;41623;46.104;19.656;2024-03-17T14:52:04;410.10;1638.40
55719;DHT22;41623;46.104;19.656;2024-03-17T14:54:31;410.00;1612.80
55719;DHT22;41623;46.104;19.656;2024-03-17T14:56:57;410.00;1612.80
55719;DHT22;41623;46.104;19.656;2024-03-17T14:59:23;410.00;1638.40
55719;DHT22;41623;46.104;19.656;2024-03-17T15:01:48;410.20;1638.40
55719;DHT22;41623;46.104;19.656;2024-03-17T15:04:15;410.10;1561.60
55719;DHT22;41623;46.104;19.656;2024-03-17T15:06:41;410.10;1638.40
55719;DHT22;41623;46.104;19.656;2024-03-17T15:09:09;410.10;1587.20
55719;DHT22;41623;46.104;19.656;2024-03-17T15:11:34;410.10;1638.40
55719;DHT22;41623;46.104;19.656;2024-03-17T15:14:01;410.10;1664.00
55719;DHT22;41623;46.104;19.656;2024-03-17T15:16:26;410.00;1664.00
55719;DHT22;41623;46.104;19.656;2024-03-17T15:18:52;410.00;1689.60
55719;DHT22;41623;46.104;19.656;2024-03-17T15:21:19;410.00;1664.00
55719;DHT22;41623;46.104;19.656;2024-03-17T15:23:45;410.10;1664.00
55719;DHT22;41623;46.104;19.656;2024-03-17T15:26:11;410.00;1638.40
55719;DHT22;41623;46.104;19.656;2024-03-17T15:28:42;410.00;1664.00
55719;DHT22;41623;46.104;19.656;2024-03-17T15:31:08;410.10;1638.40
55719;DHT22;41623;46.104;19.656;2024-03-17T15:33:35;410.00;1664.00
55719;DHT22;41623;46.104;19.656;2024-03-17T15:36:04;410.00;1664.00
55719;DHT22;41623;46.104;19.656;2024-03-17T15:38:31;410.00;1664.00
55719;DHT22;41623;46.104;19.656;2024-03-17T15:41:05;410.00;1638.40
55719;DHT22;41623;46.104;19.656;2024-03-17T15:43:35;410.00;1664.00
55719;DHT22;41623;46.104;19.656;2024-03-17T15:46:06;410.00;1638.40
55719;DHT22;41623;46.104;19.656;2024-03-17T15:48:33;410.00;1638.40
55719;DHT22;41623;46.104;19.656;2024-03-17T15:50:59;410.00;1638.40
55719;DHT22;41623;46.104;19.656;2024-03-17T15:53:25;410.00;1612.80
55719;DHT22;41623;46.104;19.656;2024-03-17T15:55:58;410.00;1612.80
55719;DHT22;41623;46.104;19.656;2024-03-17T15:58:25;410.00;1638.40
55719;DHT22;41623;46.104;19.656;2024-03-17T16:00:51;410.00;1638.40
55719;DHT22;41623;46.104;19.656;2024-03-17T16:03:17;410.00;1638.40
55719;DHT22;41623;46.104;19.656;2024-03-17T16:05:52;410.00;1664.00
55719;DHT22;41623;46.104;19.656;2024-03-17T16:08:19;410.00;1664.00
55719;DHT22;41623;46.104;19.656;2024-03-17T16:10:57;410.00;1664.00
55719;DHT22;41623;46.104;19.656;2024-03-17T16:13:26;410.00;1689.60
55719;DHT22;41623;46.104;19.656;2024-03-17T16:15:56;410.10;1664.00
55719;DHT22;41623;46.104;19.656;2024-03-17T16:18:23;410.00;1689.60
55719;DHT22;41623;46.104;19.656;2024-03-17T16:21:16;410.00;1689.60
55719;DHT22;41623;46.104;19.656;2024-03-17T16:23:48;410.00;1689.60
55719;DHT22;41623;46.104;19.656;2024-03-17T16:26:13;410.00;1664.00
55719;DHT22;41623;46.104;19.656;2024-03-17T16:28:39;410.00;1664.00
55719;DHT22;41623;46.104;19.656;2024-03-17T16:31:07;410.00;1689.60
55719;DHT22;41623;46.104;19.656;2024-03-17T16:33:36;410.00;1689.60
55719;DHT22;41623;46.104;19.656;2024-03-17T16:36:05;410.00;1689.60
55719;DHT22;41623;46.104;19.656;2024-03-17T16:38:33;410.00;1689.60
55719;DHT22;41623;46.104;19.656;2024-03-17T16:40:59;410.00;1715.20
55719;DHT22;41623;46.104;19.656;2024-03-17T16:49:20;410.00;1715.20
55719;DHT22;41623;46.104;19.656;2024-03-17T16:51:50;409.90;1715.20
55719;DHT22;41623;46.104;19.656;2024-03-17T16:54:19;409.90;1689.60
55719;DHT22;41623;46.104;19.656;2024-03-17T16:56:46;410.00;1715.20
55719;DHT22;41623;46.104;19.656;2024-03-17T16:59:12;409.90;1689.60
55719;DHT22;41623;46.104;19.656;2024-03-17T17:01:38;409.90;1715.20
55719;DHT22;41623;46.104;19.656;2024-03-17T17:04:07;409.90;1715.20
55719;DHT22;41623;46.104;19.656;2024-03-17T17:06:34;409.90;1715.20
55719;DHT22;41623;46.104;19.656;2024-03-17T17:08:59;409.90;1715.20
55719;DHT22;41623;46.104;19.656;2024-03-17T17:11:25;409.90;1715.20
55719;DHT22;41623;46.104;19.656;2024-03-17T17:13:52;409.90;1715.20
55719;DHT22;41623;46.104;19.656;2024-03-17T17:16:18;409.90;1715.20
55719;DHT22;41623;46.104;19.656;2024-03-17T17:18:52;409.80;1715.20
55719;DHT22;41623;46.104;19.656;2024-03-17T17:21:18;410.00;1715.20
55719;DHT22;41623;46.104;19.656;2024-03-17T17:23:44;409.90;1715.20
55719;DHT22;41623;46.104;19.656;2024-03-17T17:26:16;409.90;1715.20
55719;DHT22;41623;46.104;19.656;2024-03-17T17:28:42;410.00;1715.20
55719;DHT22;41623;46.104;19.656;2024-03-17T17:31:10;410.20;1689.60
55719;DHT22;41623;46.104;19.656;2024-03-17T17:33:37;410.00;1715.20
55719;DHT22;41623;46.104;19.656;2024-03-17T17:36:07;409.90;1715.20
55719;DHT22;41623;46.104;19.656;2024-03-17T17:38:33;409.90;1715.20
55719;DHT22;41623;46.104;19.656;2024-03-17T17:41:03;409.90;1715.20
55719;DHT22;41623;46.104;19.656;2024-03-17T17:43:35;409.90;1715.20
55719;DHT22;41623;46.104;19.656;2024-03-17T17:46:05;409.90;1715.20
55719;DHT22;41623;46.104;19.656;2024-03-17T17:48:32;409.90;1715.20
55719;DHT22;41623;46.104;19.656;2024-03-17T17:51:08;409.90;1715.20
55719;DHT22;41623;46.104;19.656;2024-03-17T17:53:37;409.90;1715.20
55719;DHT22;41623;46.104;19.656;2024-03-17T17:56:07;409.90;1715.20
55719;DHT22;41623;46.104;19.656;2024-03-17T17:58:35;409.90;1715.20
55719;DHT22;41623;46.104;19.656;2024-03-17T18:01:02;409.90;1740.80
55719;DHT22;41623;46.104;19.656;2024-03-17T18:03:28;409.90;1715.20
55719;DHT22;41623;46.104;19.656;2024-03-17T18:05:55;409.90;1740.80
55719;DHT22;41623;46.104;19.656;2024-03-17T18:08:25;409.90;1740.80
55719;DHT22;41623;46.104;19.656;2024-03-17T18:10:51;409.90;1740.80
55719;DHT22;41623;46.104;19.656;2024-03-17T18:13:18;409.90;1740.80
55719;DHT22;41623;46.104;19.656;2024-03-17T18:15:45;409.90;1740.80
55719;DHT22;41623;46.104;19.656;2024-03-17T18:18:16;409.90;1740.80
55719;DHT22;41623;46.104;19.656;2024-03-17T18:21:04;409.90;1740.80
55719;DHT22;41623;46.104;19.656;2024-03-17T18:23:36;409.90;1740.80
55719;DHT22;41623;46.104;19.656;2024-03-17T18:26:10;409.90;1740.80
55719;DHT22;41623;46.104;19.656;2024-03-17T18:28:37;409.90;1740.80
55719;DHT22;41623;46.104;19.656;2024-03-17T18:31:03;409.90;1740.80
55719;DHT22;41623;46.104;19.656;2024-03-17T18:33:32;409.80;1740.80
55719;DHT22;41623;46.104;19.656;2024-03-17T18:35:58;409.90;1740.80
55719;DHT22;41623;46.104;19.656;2024-03-17T18:38:24;409.90;1740.80
55719;DHT22;41623;46.104;19.656;2024-03-17T18:41:06;409.90;1740.80
55719;DHT22;41623;46.104;19.656;2024-03-17T18:43:37;409.90;1740.80
55719;DHT22;41623;46.104;19.656;2024-03-17T18:46:15;409.90;1740.80
55719;DHT22;41623;46.104;19.656;2024-03-17T18:48:42;409.90;1740.80
55719;DHT22;41623;46.104;19.656;2024-03-17T18:51:08;409.90;1740.80
55719;DHT22;41623;46.104;19.656;2024-03-17T18:53:40;409.90;1740.80
55719;DHT22;41623;46.104;19.656;2024-03-17T18:56:06;409.90;1740.80
55719;DHT22;41623;46.104;19.656;2024-03-17T18:58:32;409.90;1740.80
55719;DHT22;41623;46.104;19.656;2024-03-17T19:01:02;409.90;1740.80
55719;DHT22;41623;46.104;19.656;2024-03-17T19:03:29;409.90;1740.80
55719;DHT22;41623;46.104;19.656;2024-03-17T19:06:14;409.90;1740.80
55719;DHT22;41623;46.104;19.656;2024-03-17T19:08:42;409.90;1740.80
55719;DHT22;41623;46.104;19.656;2024-03-17T19:11:10;409.90;1740.80
55719;DHT22;41623;46.104;19.656;2024-03-17T19:13:38;409.90;1740.80
55719;DHT22;41623;46.104;19.656;2024-03-17T19:16:07;409.90;1740.80
55719;DHT22;41623;46.104;19.656;2024-03-17T19:18:37;409.90;1740.80
55719;DHT22;41623;46.104;19.656;2024-03-17T19:21:07;409.90;1740.80
55719;DHT22;41623;46.104;19.656;2024-03-17T19:23:37;409.90;1740.80
55719;DHT22;41623;46.104;19.656;2024-03-17T19:26:08;409.90;1740.80
55719;DHT22;41623;46.104;19.656;2024-03-17T19:28:35;409.90;1740.80
55719;DHT22;41623;46.104;19.656;2024-03-17T19:31:01;409.90;1740.80
55719;DHT22;41623;46.104;19.656;2024-03-17T19:33:30;409.90;1740.80
55719;DHT22;41623;46.104;19.656;2024-03-17T19:35:57;409.90;1740.80
55719;DHT22;41623;46.104;19.656;2024-03-17T19:38:24;409.90;1740.80
55719;DHT22;41623;46.104;19.656;2024-03-17T19:40:57;409.90;1740.80
55719;DHT22;41623;46.104;19.656;2024-03-17T19:43:24;409.90;1740.80
55719;DHT22;41623;46.104;19.656;2024-03-17T19:46:03;409.90;1740.80
55719;DHT22;41623;46.104;19.656;2024-03-17T19:48:37;409.90;1740.80
55719;DHT22;41623;46.104;19.656;2024-03-17T19:51:08;409.90;1740.80
55719;DHT22;41623;46.104;19.656;2024-03-17T19:53:37;409.90;1740.80
55719;DHT22;41623;46.104;19.656;2024-03-17T19:56:03;409.90;1740.80
55719;DHT22;41623;46.104;19.656;2024-03-17T19:58:28;409.90;1740.80
55719;DHT22;41623;46.104;19.656;2024-03-17T20:00:54;409.90;1740.80
55719;DHT22;41623;46.104;19.656;2024-03-17T20:03:20;409.90;1740.80
55719;DHT22;41623;46.104;19.656;2024-03-17T20:05:47;409.60;1740.80
55719;DHT22;41623;46.104;19.656;2024-03-17T20:08:14;409.90;1740.80
55719;DHT22;41623;46.104;19.656;2024-03-17T20:10:40;409.90;1740.80
55719;DHT22;41623;46.104;19.656;2024-03-17T20:13:09;409.90;1740.80
55719;DHT22;41623;46.104;19.656;2024-03-17T20:15:35;409.90;1740.80
55719;DHT22;41623;46.104;19.656;2024-03-17T20:18:02;409.90;1740.80
55719;DHT22;41623;46.104;19.656;2024-03-17T20:20:32;409.90;1740.80
55719;DHT22;41623;46.104;19.656;2024-03-17T20:22:58;409.90;1740.80
55719;DHT22;41623;46.104;19.656;2024-03-17T20:25:24;409.90;1740.80
55719;DHT22;41623;46.104;19.656;2024-03-17T20:27:50;409.90;1740.80
55719;DHT22;41623;46.104;19.656;2024-03-17T20:30:15;409.90;1740.80
55719;DHT22;41623;46.104;19.656;2024-03-17T20:32:48;409.90;1740.80
55719;DHT22;41623;46.104;19.656;2024-03-17T20:35:14;409.90;1740.80
55719;DHT22;41623;46.104;19.656;2024-03-17T20:37:41;409.90;1740.80
55719;DHT22;41623;46.104;19.656;2024-03-17T20:40:07;409.90;1740.80
55719;DHT22;41623;46.104;19.656;2024-03-17T20:42:35;409.90;1740.80
55719;DHT22;41623;46.104;19.656;2024-03-17T20:45:02;409.90;1740.80
55719;DHT22;41623;46.104;19.656;2024-03-17T20:47:31;409.90;1740.80
55719;DHT22;41623;46.104;19.656;2024-03-17T20:49:56;409.90;1740.80
55719;DHT22;41623;46.104;19.656;2024-03-17T20:52:22;409.90;1740.80
55719;DHT22;41623;46.104;19.656;2024-03-17T20:54:49;409.90;1740.80
55719;DHT22;41623;46.104;19.656;2024-03-17T20:57:17;409.90;1740.80
55719;DHT22;41623;46.104;19.656;2024-03-17T20:59:43;409.90;1740.80
55719;DHT22;41623;46.104;19.656;2024-03-17T21:02:09;409.90;1740.80
55719;DHT22;41623;46.104;19.656;2024-03-17T21:04:36;409.90;1740.80
55719;DHT22;41623;46.104;19.656;2024-03-17T21:07:02;409.90;1740.80
55719;DHT22;41623;46.104;19.656;2024-03-17T21:09:28;409.90;1740.80
55719;DHT22;41623;46.104;19.656;2024-03-17T21:11:54;409.90;1740.80
55719;DHT22;41623;46.104;19.656;2024-03-17T21:14:22;409.90;1740.80
55719;DHT22;41623;46.104;19.656;2024-03-17T21:16:47;409.90;1740.80
55719;DHT22;41623;46.104;19.656;2024-03-17T21:19:16;409.90;1740.80
55719;DHT22;41623;46.104;19.656;2024-03-17T21:21:45;409.90;1740.80
55719;DHT22;41623;46.104;19.656;2024-03-17T21:24:14;409.90;1740.80
55719;DHT22;41623;46.104;19.656;2024-03-17T21:26:40;409.90;1740.80
55719;DHT22;41623;46.104;19.656;2024-03-17T21:29:07;409.90;1740.80
55719;DHT22;41623;46.104;19.656;2024-03-17T21:31:33;409.90;1740.80
55719;DHT22;41623;46.104;19.656;2024-03-17T21:33:59;409.90;1740.80
55719;DHT22;41623;46.104;19.656;2024-03-17T21:36:25;409.90;1740.80
55719;DHT22;41623;46.104;19.656;2024-03-17T21:38:50;409.90;1740.80
55719;DHT22;41623;46.104;19.656;2024-03-17T21:41:16;409.90;1715.20
55719;DHT22;41623;46.104;19.656;2024-03-17T21:43:45;409.90;1715.20
55719;DHT22;41623;46.104;19.656;2024-03-17T21:46:11;409.90;1740.80
55719;DHT22;41623;46.104;19.656;2024-03-17T21:48:37;409.90;1740.80
55719;DHT22;41623;46.104;19.656;2024-03-17T21:51:04;409.90;1740.80
55719;DHT22;41623;46.104;19.656;2024-03-17T21:53:31;409.90;1740.80
55719;DHT22;41623;46.104;19.656;2024-03-17T21:55:57;409.90;1740.80
55719;DHT22;41623;46.104;19.656;2024-03-17T21:58:24;409.90;1740.80
55719;DHT22;41623;46.104;19.656;2024-03-17T22:00:50;409.90;1740.80
55719;DHT22;41623;46.104;19.656;2024-03-17T22:03:16;409.90;1740.80
55719;DHT22;41623;46.104;19.656;2024-03-17T22:05:49;409.90;1740.80
55719;DHT22;41623;46.104;19.656;2024-03-17T22:08:21;409.90;1740.80
55719;DHT22;41623;46.104;19.656;2024-03-17T22:10:57;409.90;1740.80
55719;DHT22;41623;46.104;19.656;2024-03-17T22:13:24;410.00;1740.80
55719;DHT22;41623;46.104;19.656;2024-03-17T22:16:00;410.00;2048.00
55719;DHT22;41623;46.104;19.656;2024-03-17T22:18:30;409.90;1740.80
55719;DHT22;41623;46.104;19.656;2024-03-17T22:21:00;410.00;1740.80
55719;DHT22;41623;46.104;19.656;2024-03-17T22:23:29;409.90;1740.80
55719;DHT22;41623;46.104;19.656;2024-03-17T22:25:56;409.90;1740.80
55719;DHT22;41623;46.104;19.656;2024-03-17T22:28:24;409.90;1740.80
55719;DHT22;41623;46.104;19.656;2024-03-17T22:30:54;409.90;1740.80
55719;DHT22;41623;46.104;19.656;2024-03-17T22:33:21;409.90;1740.80
55719;DHT22;41623;46.104;19.656;2024-03-17T22:36:03;409.90;1740.80
55719;DHT22;41623;46.104;19.656;2024-03-17T22:38:33;409.90;1740.80
55719;DHT22;41623;46.104;19.656;2024-03-17T22:41:07;409.90;1740.80
55719;DHT22;41623;46.104;19.656;2024-03-17T22:43:36;409.90;1740.80
55719;DHT22;41623;46.104;19.656;2024-03-17T22:46:06;409.90;1715.20
55719;DHT22;41623;46.104;19.656;2024-03-17T22:48:32;409.90;1715.20
55719;DHT22;41623;46.104;19.656;2024-03-17T22:51:07;409.90;1715.20
55719;DHT22;41623;46.104;19.656;2024-03-17T22:53:34;409.90;1715.20
55719;DHT22;41623;46.104;19.656;2024-03-17T22:56:00;409.90;1715.20
55719;DHT22;41623;46.104;19.656;2024-03-17T22:58:26;409.90;1715.20
55719;DHT22;41623;46.104;19.656;2024-03-17T23:00:54;409.90;1715.20
55719;DHT22;41623;46.104;19.656;2024-03-17T23:03:25;409.90;1740.80
55719;DHT22;41623;46.104;19.656;2024-03-17T23:05:52;409.90;1740.80
55719;DHT22;41623;46.104;19.656;2024-03-17T23:08:20;409.90;1740.80
55719;DHT22;41623;46.104;19.656;2024-03-17T23:10:46;409.90;1740.80
55719;DHT22;41623;46.104;19.656;2024-03-17T23:13:13;409.80;1740.80
55719;DHT22;41623;46.104;19.656;2024-03-17T23:15:39;409.90;1740.80
55719;DHT22;41623;46.104;19.656;2024-03-17T23:18:06;409.90;1740.80
55719;DHT22;41623;46.104;19.656;2024-03-17T23:20:33;409.90;1740.80
55719;DHT22;41623;46.104;19.656;2024-03-17T23:22:59;409.90;1740.80
55719;DHT22;41623;46.104;19.656;2024-03-17T23:25:33;409.90;1740.80
55719;DHT22;41623;46.104;19.656;2024-03-17T23:27:59;409.80;1740.80
55719;DHT22;41623;46.104;19.656;2024-03-17T23:30:25;409.80;1740.80
55719;DHT22;41623;46.104;19.656;2024-03-17T23:32:51;409.90;1740.80
55719;DHT22;41623;46.104;19.656;2024-03-17T23:35:17;409.80;1740.80
55719;DHT22;41623;46.104;19.656;2024-03-17T23:37:43;409.80;1740.80
55719;DHT22;41623;46.104;19.656;2024-03-17T23:40:09;409.80;1740.80
55719;DHT22;41623;46.104;19.656;2024-03-17T23:42:41;409.80;1740.80
55719;DHT22;41623;46.104;19.656;2024-03-17T23:45:08;409.80;1740.80
55719;DHT22;41623;46.104;19.656;2024-03-17T23:47:35;409.80;1740.80
55719;DHT22;41623;46.104;19.656;2024-03-17T23:50:01;409.80;1740.80
55719;DHT22;41623;46.104;19.656;2024-03-17T23:52:33;409.80;1740.80
55719;DHT22;41623;46.104;19.656;2024-03-17T23:54:59;409.80;1740.80
55719;DHT22;41623;46.104;19.656;2024-03-17T23:57:26;409.80;1740.80
55719;DHT22;41623;46.104;19.656;2024-03-17T23:59:52;409.80;1740.80
